TimeAST,TemperatureF,Dew PointF,Humidity,Sea Level PressureIn,VisibilityMPH,Wind Direction,Wind SpeedMPH,Gust SpeedMPH,PrecipitationIn,Events,Conditions,WindDirDegrees,DateUTC
12:00 AM,33.3,24.4,70,30.03,-9999.0,North,13.8,24.2,N/A,,Unknown,10,2013-02-22 04:00:00
1:00 AM,31.5,25.0,77,30.06,-9999.0,North,10.4,18.4,N/A,,Unknown,360,2013-02-22 05:00:00
2:00 AM,32,24,63,30.09,,North,11.5,,,,,10,2013-02-22 06:00:00
2:00 AM,31.8,24.3,74,30.09,-9999.0,North,11.5,21.9,N/A,,Unknown,10,2013-02-22 06:00:00
3:00 AM,31.3,22.5,70,30.13,-9999.0,North,11.5,18.4,N/A,,Unknown,360,2013-02-22 07:00:00
4:00 AM,30.6,21.2,68,30.17,-9999.0,North,12.7,19.6,N/A,,Unknown,10,2013-02-22 08:00:00
5:00 AM,30,21,58,30.20,,North,11.5,,,,,0,2013-02-22 09:00:00
5:00 AM,30.4,21.0,68,30.20,-9999.0,North,11.5,18.4,N/A,,Unknown,360,2013-02-22 09:00:00
6:00 AM,30.2,21.6,70,30.22,-9999.0,North,9.2,-,N/A,,Unknown,360,2013-02-22 10:00:00
7:00 AM,29.3,20.8,71,30.24,-9999.0,North,8.1,-,N/A,,Unknown,10,2013-02-22 11:00:00
8:00 AM,29,20,57,30.28,,North,9.2,,,,,10,2013-02-22 12:00:00
8:00 AM,28.6,19.6,69,30.28,-9999.0,North,9.2,-,N/A,,Unknown,10,2013-02-22 12:00:00
9:00 AM,28.8,18.9,67,30.30,-9999.0,NNE,9.2,-,N/A,,Unknown,20,2013-02-22 13:00:00
10:00 AM,29.3,19.2,66,30.32,-9999.0,NNE,11.5,19.6,N/A,,Unknown,20,2013-02-22 14:00:00
11:00 AM,32,19,45,30.34,,NNE,11.5,,,,,20,2013-02-22 15:00:00
11:00 AM,31.8,18.9,59,30.34,-9999.0,NNE,11.5,-,N/A,,Unknown,20,2013-02-22 15:00:00
12:00 PM,31.1,17.8,58,30.35,-9999.0,North,10.4,18.4,N/A,,Unknown,360,2013-02-22 16:00:00
1:00 PM,34.0,17.6,51,30.33,-9999.0,North,9.2,-,N/A,,Unknown,360,2013-02-22 17:00:00
2:00 PM,36,17,32,30.32,,NNW,8.1,,,,,340,2013-02-22 18:00:00
2:00 PM,36.0,17.1,46,30.32,-9999.0,NNW,8.1,-,N/A,,Unknown,340,2013-02-22 18:00:00
3:00 PM,36.9,17.6,46,30.30,-9999.0,North,6.9,-,N/A,,Unknown,360,2013-02-22 19:00:00
4:00 PM,37.2,18.3,46,30.30,-9999.0,North,9.2,-,N/A,,Unknown,360,2013-02-22 20:00:00
5:00 PM,36,19,37,30.32,,North,9.2,,,,,0,2013-02-22 21:00:00
5:00 PM,36.1,19.0,50,30.32,-9999.0,North,9.2,-,N/A,,Unknown,360,2013-02-22 21:00:00
6:00 PM,32.9,19.0,57,30.33,-9999.0,NNW,4.6,-,N/A,,Unknown,330,2013-02-22 22:00:00
7:00 PM,29.5,19.0,65,30.34,-9999.0,NNW,3.5,-,N/A,,Unknown,330,2013-02-22 23:00:00
8:00 PM,28,20,60,30.35,,NE,3.5,,,,,50,2013-02-23 00:00:00
8:00 PM,27.5,19.6,72,30.35,-9999.0,NE,3.5,-,N/A,,Unknown,50,2013-02-23 00:00:00
9:00 PM,25.5,19.0,76,30.36,-9999.0,East,2.3,-,N/A,,Unknown,80,2013-02-23 01:00:00
10:00 PM,25.0,18.5,76,30.37,-9999.0,East,3.5,-,N/A,,Unknown,90,2013-02-23 02:00:00
11:00 PM,23,18,74,30.37,,ENE,4.6,,,,,60,2013-02-23 03:00:00
11:00 PM,23.0,18.1,82,30.37,-9999.0,ENE,4.6,-,N/A,,Unknown,60,2013-02-23 03:00:00